sensor_id;sensor_type;location;lat;lon;timestamp;P1;durP1;ratioP1;P2;durP2;ratioP2
68944;SDS011;55984;48.790;8.990;2022-11-13T00:00:43;166.80;;;38.33;;
68944;SDS011;55984;48.790;8.990;2022-11-13T00:03:08;153.37;;;38.67;;
68944;SDS011;55984;48.790;8.990;2022-11-13T00:05:34;155.50;;;37.83;;
68944;SDS011;55984;48.790;8.990;2022-11-13T00:07:59;155.80;;;39.80;;
68944;SDS011;55984;48.790;8.990;2022-11-13T00:10:25;202.03;;;43.87;;
68944;SDS011;55984;48.790;8.990;2022-11-13T00:12:50;146.43;;;42.23;;
68944;SDS011;55984;48.790;8.990;2022-11-13T00:15:17;182.43;;;44.73;;
68944;SDS011;55984;48.790;8.990;2022-11-13T00:17:43;210.20;;;45.87;;
68944;SDS011;55984;48.790;8.990;2022-11-13T00:20:08;197.87;;;44.73;;
68944;SDS011;55984;48.790;8.990;2022-11-13T00:22:33;222.53;;;44.97;;
68944;SDS011;55984;48.790;8.990;2022-11-13T00:24:59;147.93;;;41.90;;
68944;SDS011;55984;48.790;8.990;2022-11-13T00:27:24;167.77;;;41.60;;
68944;SDS011;55984;48.790;8.990;2022-11-13T00:29:49;162.00;;;40.27;;
68944;SDS011;55984;48.790;8.990;2022-11-13T00:32:15;143.80;;;38.87;;
68944;SDS011;55984;48.790;8.990;2022-11-13T00:34:40;152.57;;;41.00;;
68944;SDS011;55984;48.790;8.990;2022-11-13T00:37:05;137.43;;;37.60;;
68944;SDS011;55984;48.790;8.990;2022-11-13T00:39:31;126.37;;;37.20;;
68944;SDS011;55984;48.790;8.990;2022-11-13T00:41:56;102.90;;;34.87;;
68944;SDS011;55984;48.790;8.990;2022-11-13T00:44:21;134.53;;;37.60;;
68944;SDS011;55984;48.790;8.990;2022-11-13T00:46:47;125.30;;;35.50;;
68944;SDS011;55984;48.790;8.990;2022-11-13T00:49:12;138.40;;;38.33;;
68944;SDS011;55984;48.790;8.990;2022-11-13T00:51:37;135.10;;;38.00;;
68944;SDS011;55984;48.790;8.990;2022-11-13T00:54:03;119.43;;;36.80;;
68944;SDS011;55984;48.790;8.990;2022-11-13T00:56:28;129.90;;;36.27;;
68944;SDS011;55984;48.790;8.990;2022-11-13T00:58:54;134.97;;;36.90;;
68944;SDS011;55984;48.790;8.990;2022-11-13T01:01:19;134.17;;;36.77;;
68944;SDS011;55984;48.790;8.990;2022-11-13T01:03:45;113.47;;;34.20;;
68944;SDS011;55984;48.790;8.990;2022-11-13T01:08:37;120.18;;;36.67;;
68944;SDS011;55984;48.790;8.990;2022-11-13T01:11:10;133.63;;;38.33;;
68944;SDS011;55984;48.790;8.990;2022-11-13T01:13:38;132.43;;;37.45;;
68944;SDS011;55984;48.790;8.990;2022-11-13T01:16:05;220.50;;;43.45;;
68944;SDS011;55984;48.790;8.990;2022-11-13T01:18:32;246.98;;;47.80;;
68944;SDS011;55984;48.790;8.990;2022-11-13T01:21:05;211.20;;;44.17;;
68944;SDS011;55984;48.790;8.990;2022-11-13T01:23:39;168.07;;;42.20;;
68944;SDS011;55984;48.790;8.990;2022-11-13T01:26:10;177.70;;;44.03;;
68944;SDS011;55984;48.790;8.990;2022-11-13T01:28:38;188.60;;;45.88;;
68944;SDS011;55984;48.790;8.990;2022-11-13T01:31:08;248.15;;;46.05;;
68944;SDS011;55984;48.790;8.990;2022-11-13T01:33:35;321.05;;;49.13;;
68944;SDS011;55984;48.790;8.990;2022-11-13T01:36:05;281.17;;;45.97;;
68944;SDS011;55984;48.790;8.990;2022-11-13T01:38:33;213.85;;;42.50;;
68944;SDS011;55984;48.790;8.990;2022-11-13T01:40:59;239.35;;;44.50;;
68944;SDS011;55984;48.790;8.990;2022-11-13T01:43:26;167.53;;;40.43;;
68944;SDS011;55984;48.790;8.990;2022-11-13T01:48:22;186.77;;;40.05;;
68944;SDS011;55984;48.790;8.990;2022-11-13T01:50:49;194.95;;;41.00;;
68944;SDS011;55984;48.790;8.990;2022-11-13T01:53:15;183.43;;;41.03;;
68944;SDS011;55984;48.790;8.990;2022-11-13T01:55:40;185.43;;;40.40;;
68944;SDS011;55984;48.790;8.990;2022-11-13T01:58:06;203.47;;;41.70;;
68944;SDS011;55984;48.790;8.990;2022-11-13T02:00:34;223.48;;;45.63;;
68944;SDS011;55984;48.790;8.990;2022-11-13T02:02:59;258.03;;;45.63;;
68944;SDS011;55984;48.790;8.990;2022-11-13T02:05:25;254.53;;;46.80;;
68944;SDS011;55984;48.790;8.990;2022-11-13T02:07:50;188.57;;;42.50;;
68944;SDS011;55984;48.790;8.990;2022-11-13T02:10:16;170.70;;;40.50;;
68944;SDS011;55984;48.790;8.990;2022-11-13T02:12:42;190.10;;;41.70;;
68944;SDS011;55984;48.790;8.990;2022-11-13T02:15:10;143.65;;;39.88;;
68944;SDS011;55984;48.790;8.990;2022-11-13T02:17:41;156.70;;;41.80;;
68944;SDS011;55984;48.790;8.990;2022-11-13T02:20:09;155.15;;;40.85;;
68944;SDS011;55984;48.790;8.990;2022-11-13T02:25:29;137.60;;;40.83;;
68944;SDS011;55984;48.790;8.990;2022-11-13T02:27:57;132.68;;;40.50;;
68944;SDS011;55984;48.790;8.990;2022-11-13T02:30:23;148.87;;;41.80;;
68944;SDS011;55984;48.790;8.990;2022-11-13T02:32:52;141.55;;;39.80;;
68944;SDS011;55984;48.790;8.990;2022-11-13T02:35:23;175.43;;;43.15;;
68944;SDS011;55984;48.790;8.990;2022-11-13T02:37:51;152.77;;;41.50;;
68944;SDS011;55984;48.790;8.990;2022-11-13T02:40:17;135.20;;;39.87;;
68944;SDS011;55984;48.790;8.990;2022-11-13T02:42:43;137.90;;;41.45;;
68944;SDS011;55984;48.790;8.990;2022-11-13T02:45:08;143.60;;;41.13;;
68944;SDS011;55984;48.790;8.990;2022-11-13T02:47:34;104.43;;;37.47;;
68944;SDS011;55984;48.790;8.990;2022-11-13T02:49:59;124.70;;;40.47;;
68944;SDS011;55984;48.790;8.990;2022-11-13T02:52:25;106.73;;;37.57;;
68944;SDS011;55984;48.790;8.990;2022-11-13T02:54:50;118.57;;;36.73;;
68944;SDS011;55984;48.790;8.990;2022-11-13T02:57:15;113.30;;;38.77;;
68944;SDS011;55984;48.790;8.990;2022-11-13T02:59:41;123.43;;;39.33;;
68944;SDS011;55984;48.790;8.990;2022-11-13T03:02:06;142.97;;;41.20;;
68944;SDS011;55984;48.790;8.990;2022-11-13T03:04:32;127.03;;;38.33;;
68944;SDS011;55984;48.790;8.990;2022-11-13T03:06:57;140.17;;;41.87;;
68944;SDS011;55984;48.790;8.990;2022-11-13T03:09:22;125.03;;;38.53;;
68944;SDS011;55984;48.790;8.990;2022-11-13T03:11:48;118.67;;;37.20;;
68944;SDS011;55984;48.790;8.990;2022-11-13T03:14:13;136.13;;;40.23;;
68944;SDS011;55984;48.790;8.990;2022-11-13T03:16:39;129.03;;;38.57;;
68944;SDS011;55984;48.790;8.990;2022-11-13T03:19:04;99.17;;;34.40;;
68944;SDS011;55984;48.790;8.990;2022-11-13T03:21:29;103.60;;;33.80;;
68944;SDS011;55984;48.790;8.990;2022-11-13T03:23:55;90.33;;;33.50;;
68944;SDS011;55984;48.790;8.990;2022-11-13T03:26:20;91.57;;;32.73;;
68944;SDS011;55984;48.790;8.990;2022-11-13T03:28:46;82.60;;;32.17;;
68944;SDS011;55984;48.790;8.990;2022-11-13T03:31:11;108.83;;;33.07;;
68944;SDS011;55984;48.790;8.990;2022-11-13T03:33:37;91.63;;;33.40;;
68944;SDS011;55984;48.790;8.990;2022-11-13T03:36:03;89.87;;;32.93;;
68944;SDS011;55984;48.790;8.990;2022-11-13T03:38:32;99.43;;;32.87;;
68944;SDS011;55984;48.790;8.990;2022-11-13T03:40:57;109.03;;;34.80;;
68944;SDS011;55984;48.790;8.990;2022-11-13T03:43:23;107.07;;;32.70;;
68944;SDS011;55984;48.790;8.990;2022-11-13T03:45:48;102.60;;;33.23;;
68944;SDS011;55984;48.790;8.990;2022-11-13T03:48:14;104.50;;;31.47;;
68944;SDS011;55984;48.790;8.990;2022-11-13T03:50:48;108.47;;;34.53;;
68944;SDS011;55984;48.790;8.990;2022-11-13T03:53:16;126.22;;;34.90;;
68944;SDS011;55984;48.790;8.990;2022-11-13T03:55:42;114.10;;;35.37;;
68944;SDS011;55984;48.790;8.990;2022-11-13T03:58:08;156.00;;;39.40;;
68944;SDS011;55984;48.790;8.990;2022-11-13T04:00:34;156.33;;;39.47;;
68944;SDS011;55984;48.790;8.990;2022-11-13T04:03:00;161.77;;;40.03;;
68944;SDS011;55984;48.790;8.990;2022-11-13T04:05:26;153.87;;;37.93;;
68944;SDS011;55984;48.790;8.990;2022-11-13T04:07:51;177.20;;;38.87;;
68944;SDS011;55984;48.790;8.990;2022-11-13T04:10:17;161.20;;;37.50;;
68944;SDS011;55984;48.790;8.990;2022-11-13T04:12:42;196.10;;;41.73;;
68944;SDS011;55984;48.790;8.990;2022-11-13T04:15:08;239.07;;;48.03;;
68944;SDS011;55984;48.790;8.990;2022-11-13T04:17:34;224.90;;;45.83;;
68944;SDS011;55984;48.790;8.990;2022-11-13T04:19:59;195.70;;;45.10;;
68944;SDS011;55984;48.790;8.990;2022-11-13T04:22:24;208.43;;;46.60;;
68944;SDS011;55984;48.790;8.990;2022-11-13T04:24:50;203.57;;;44.50;;
68944;SDS011;55984;48.790;8.990;2022-11-13T04:27:15;178.07;;;43.07;;
68944;SDS011;55984;48.790;8.990;2022-11-13T04:29:40;186.73;;;44.80;;
68944;SDS011;55984;48.790;8.990;2022-11-13T04:32:06;164.67;;;42.53;;
68944;SDS011;55984;48.790;8.990;2022-11-13T04:34:31;145.10;;;40.80;;
68944;SDS011;55984;48.790;8.990;2022-11-13T04:36:57;193.20;;;44.20;;
68944;SDS011;55984;48.790;8.990;2022-11-13T04:39:22;237.23;;;45.47;;
68944;SDS011;55984;48.790;8.990;2022-11-13T04:41:47;157.67;;;41.33;;
68944;SDS011;55984;48.790;8.990;2022-11-13T04:44:32;179.85;;;41.47;;
68944;SDS011;55984;48.790;8.990;2022-11-13T04:46:57;153.40;;;39.00;;
68944;SDS011;55984;48.790;8.990;2022-11-13T04:49:22;169.27;;;41.03;;
68944;SDS011;55984;48.790;8.990;2022-11-13T04:51:48;177.60;;;40.40;;
68944;SDS011;55984;48.790;8.990;2022-11-13T04:54:13;138.63;;;40.47;;
68944;SDS011;55984;48.790;8.990;2022-11-13T04:56:38;133.20;;;40.40;;
68944;SDS011;55984;48.790;8.990;2022-11-13T04:59:04;108.20;;;36.90;;
68944;SDS011;55984;48.790;8.990;2022-11-13T05:01:29;192.60;;;40.47;;
68944;SDS011;55984;48.790;8.990;2022-11-13T05:03:54;107.20;;;36.50;;
68944;SDS011;55984;48.790;8.990;2022-11-13T05:06:20;120.47;;;37.20;;
68944;SDS011;55984;48.790;8.990;2022-11-13T05:08:45;133.73;;;38.53;;
68944;SDS011;55984;48.790;8.990;2022-11-13T05:11:11;116.47;;;37.35;;
68944;SDS011;55984;48.790;8.990;2022-11-13T05:13:37;121.20;;;38.80;;
68944;SDS011;55984;48.790;8.990;2022-11-13T05:16:06;97.63;;;33.97;;
68944;SDS011;55984;48.790;8.990;2022-11-13T05:18:34;114.63;;;38.50;;
68944;SDS011;55984;48.790;8.990;2022-11-13T05:21:00;122.50;;;38.72;;
68944;SDS011;55984;48.790;8.990;2022-11-13T05:23:26;117.90;;;35.70;;
68944;SDS011;55984;48.790;8.990;2022-11-13T05:25:51;127.60;;;37.80;;
68944;SDS011;55984;48.790;8.990;2022-11-13T05:28:17;106.50;;;35.40;;
68944;SDS011;55984;48.790;8.990;2022-11-13T05:30:42;110.20;;;36.30;;
68944;SDS011;55984;48.790;8.990;2022-11-13T05:33:08;134.10;;;38.00;;
68944;SDS011;55984;48.790;8.990;2022-11-13T05:35:33;109.80;;;36.50;;
68944;SDS011;55984;48.790;8.990;2022-11-13T05:37:59;101.27;;;36.13;;
68944;SDS011;55984;48.790;8.990;2022-11-13T05:40:26;115.95;;;36.28;;
68944;SDS011;55984;48.790;8.990;2022-11-13T05:42:53;109.82;;;35.75;;
68944;SDS011;55984;48.790;8.990;2022-11-13T05:45:19;125.38;;;37.55;;
68944;SDS011;55984;48.790;8.990;2022-11-13T05:47:44;108.40;;;35.73;;
68944;SDS011;55984;48.790;8.990;2022-11-13T05:50:09;115.03;;;37.17;;
68944;SDS011;55984;48.790;8.990;2022-11-13T05:52:35;117.67;;;35.47;;
68944;SDS011;55984;48.790;8.990;2022-11-13T05:55:00;114.30;;;35.57;;
68944;SDS011;55984;48.790;8.990;2022-11-13T05:57:26;117.07;;;37.30;;
68944;SDS011;55984;48.790;8.990;2022-11-13T05:59:51;121.57;;;36.03;;
68944;SDS011;55984;48.790;8.990;2022-11-13T06:02:16;94.77;;;33.87;;
68944;SDS011;55984;48.790;8.990;2022-11-13T06:04:42;102.23;;;35.50;;
68944;SDS011;55984;48.790;8.990;2022-11-13T06:07:08;118.75;;;34.05;;
68944;SDS011;55984;48.790;8.990;2022-11-13T06:09:33;93.03;;;32.17;;
68944;SDS011;55984;48.790;8.990;2022-11-13T06:11:59;114.63;;;34.20;;
68944;SDS011;55984;48.790;8.990;2022-11-13T06:14:24;113.33;;;35.93;;
68944;SDS011;55984;48.790;8.990;2022-11-13T06:16:50;109.37;;;33.17;;
68944;SDS011;55984;48.790;8.990;2022-11-13T06:19:15;94.67;;;32.20;;
68944;SDS011;55984;48.790;8.990;2022-11-13T06:21:40;116.47;;;34.53;;
68944;SDS011;55984;48.790;8.990;2022-11-13T06:24:06;102.40;;;33.77;;
68944;SDS011;55984;48.790;8.990;2022-11-13T06:26:35;134.15;;;37.45;;
68944;SDS011;55984;48.790;8.990;2022-11-13T06:29:00;138.65;;;35.88;;
68944;SDS011;55984;48.790;8.990;2022-11-13T06:31:28;230.93;;;39.30;;
68944;SDS011;55984;48.790;8.990;2022-11-13T06:33:56;209.68;;;42.35;;
68944;SDS011;55984;48.790;8.990;2022-11-13T06:36:27;249.18;;;41.38;;
68944;SDS011;55984;48.790;8.990;2022-11-13T06:38:54;544.63;;;47.03;;
68944;SDS011;55984;48.790;8.990;2022-11-13T06:41:21;508.48;;;49.28;;
68944;SDS011;55984;48.790;8.990;2022-11-13T06:43:49;291.63;;;40.97;;
68944;SDS011;55984;48.790;8.990;2022-11-13T06:46:16;337.03;;;40.70;;
68944;SDS011;55984;48.790;8.990;2022-11-13T06:48:43;482.25;;;44.33;;
68944;SDS011;55984;48.790;8.990;2022-11-13T06:51:11;206.03;;;37.27;;
68944;SDS011;55984;48.790;8.990;2022-11-13T06:53:39;128.73;;;34.70;;
68944;SDS011;55984;48.790;8.990;2022-11-13T06:56:05;209.67;;;41.17;;
68944;SDS011;55984;48.790;8.990;2022-11-13T06:58:31;275.20;;;36.50;;
68944;SDS011;55984;48.790;8.990;2022-11-13T07:00:56;183.05;;;37.53;;
68944;SDS011;55984;48.790;8.990;2022-11-13T07:03:23;172.10;;;35.80;;
68944;SDS011;55984;48.790;8.990;2022-11-13T07:05:49;129.57;;;35.38;;
68944;SDS011;55984;48.790;8.990;2022-11-13T07:08:15;133.70;;;34.83;;
68944;SDS011;55984;48.790;8.990;2022-11-13T07:10:41;155.60;;;37.10;;
68944;SDS011;55984;48.790;8.990;2022-11-13T07:13:08;173.98;;;38.78;;
68944;SDS011;55984;48.790;8.990;2022-11-13T07:15:37;143.73;;;35.72;;
68944;SDS011;55984;48.790;8.990;2022-11-13T07:18:04;176.75;;;35.30;;
68944;SDS011;55984;48.790;8.990;2022-11-13T07:20:31;200.90;;;38.50;;
68944;SDS011;55984;48.790;8.990;2022-11-13T07:22:58;217.80;;;41.45;;
68944;SDS011;55984;48.790;8.990;2022-11-13T07:25:25;139.70;;;36.58;;
68944;SDS011;55984;48.790;8.990;2022-11-13T07:27:51;203.73;;;38.25;;
68944;SDS011;55984;48.790;8.990;2022-11-13T07:30:17;168.37;;;45.87;;
68944;SDS011;55984;48.790;8.990;2022-11-13T07:32:42;195.13;;;47.40;;
68944;SDS011;55984;48.790;8.990;2022-11-13T07:35:08;180.23;;;43.90;;
68944;SDS011;55984;48.790;8.990;2022-11-13T07:37:34;153.47;;;38.80;;
68944;SDS011;55984;48.790;8.990;2022-11-13T07:39:59;137.70;;;40.10;;
68944;SDS011;55984;48.790;8.990;2022-11-13T07:42:25;142.70;;;38.60;;
68944;SDS011;55984;48.790;8.990;2022-11-13T07:44:50;159.10;;;40.70;;
68944;SDS011;55984;48.790;8.990;2022-11-13T07:47:16;148.33;;;43.17;;
68944;SDS011;55984;48.790;8.990;2022-11-13T07:49:41;189.77;;;48.23;;
68944;SDS011;55984;48.790;8.990;2022-11-13T07:52:06;138.60;;;40.60;;
68944;SDS011;55984;48.790;8.990;2022-11-13T07:54:32;134.70;;;40.80;;
68944;SDS011;55984;48.790;8.990;2022-11-13T07:56:58;155.00;;;43.33;;
68944;SDS011;55984;48.790;8.990;2022-11-13T07:59:24;148.30;;;43.17;;
68944;SDS011;55984;48.790;8.990;2022-11-13T08:01:49;171.97;;;45.00;;
68944;SDS011;55984;48.790;8.990;2022-11-13T08:04:15;144.90;;;42.13;;
68944;SDS011;55984;48.790;8.990;2022-11-13T08:06:40;105.07;;;37.40;;
68944;SDS011;55984;48.790;8.990;2022-11-13T08:09:05;116.03;;;37.30;;
68944;SDS011;55984;48.790;8.990;2022-11-13T08:11:31;90.50;;;34.20;;
68944;SDS011;55984;48.790;8.990;2022-11-13T08:13:56;102.33;;;37.93;;
68944;SDS011;55984;48.790;8.990;2022-11-13T08:16:21;92.30;;;36.53;;
68944;SDS011;55984;48.790;8.990;2022-11-13T08:18:50;89.43;;;36.37;;
68944;SDS011;55984;48.790;8.990;2022-11-13T08:21:15;86.43;;;34.67;;
68944;SDS011;55984;48.790;8.990;2022-11-13T08:23:41;80.27;;;33.30;;
68944;SDS011;55984;48.790;8.990;2022-11-13T08:26:13;83.40;;;32.10;;
68944;SDS011;55984;48.790;8.990;2022-11-13T08:28:38;80.03;;;32.53;;
68944;SDS011;55984;48.790;8.990;2022-11-13T08:31:08;86.43;;;33.30;;
68944;SDS011;55984;48.790;8.990;2022-11-13T08:33:35;86.90;;;34.20;;
68944;SDS011;55984;48.790;8.990;2022-11-13T08:36:00;98.90;;;35.93;;
68944;SDS011;55984;48.790;8.990;2022-11-13T08:38:25;78.43;;;33.70;;
68944;SDS011;55984;48.790;8.990;2022-11-13T08:40:51;76.27;;;31.50;;
68944;SDS011;55984;48.790;8.990;2022-11-13T08:43:19;77.37;;;33.03;;
68944;SDS011;55984;48.790;8.990;2022-11-13T08:45:44;94.57;;;34.33;;
68944;SDS011;55984;48.790;8.990;2022-11-13T08:48:11;104.50;;;37.23;;
68944;SDS011;55984;48.790;8.990;2022-11-13T08:50:36;98.30;;;37.17;;
68944;SDS011;55984;48.790;8.990;2022-11-13T08:53:03;86.90;;;34.40;;
68944;SDS011;55984;48.790;8.990;2022-11-13T08:55:29;100.40;;;34.87;;
68944;SDS011;55984;48.790;8.990;2022-11-13T08:57:56;89.30;;;34.90;;
68944;SDS011;55984;48.790;8.990;2022-11-13T09:00:27;100.93;;;33.57;;
68944;SDS011;55984;48.790;8.990;2022-11-13T09:02:54;47.33;;;23.27;;
68944;SDS011;55984;48.790;8.990;2022-11-13T09:05:20;27.73;;;15.63;;
68944;SDS011;55984;48.790;8.990;2022-11-13T09:07:46;22.10;;;13.37;;
68944;SDS011;55984;48.790;8.990;2022-11-13T09:10:11;18.97;;;12.00;;
68944;SDS011;55984;48.790;8.990;2022-11-13T09:12:37;20.10;;;13.50;;
68944;SDS011;55984;48.790;8.990;2022-11-13T09:15:02;19.00;;;12.03;;
68944;SDS011;55984;48.790;8.990;2022-11-13T09:17:29;19.03;;;11.80;;
68944;SDS011;55984;48.790;8.990;2022-11-13T09:19:54;17.67;;;12.10;;
68944;SDS011;55984;48.790;8.990;2022-11-13T09:22:20;18.60;;;11.47;;
68944;SDS011;55984;48.790;8.990;2022-11-13T09:24:46;17.00;;;10.37;;
68944;SDS011;55984;48.790;8.990;2022-11-13T09:27:12;15.03;;;10.57;;
68944;SDS011;55984;48.790;8.990;2022-11-13T09:29:37;14.30;;;9.83;;
68944;SDS011;55984;48.790;8.990;2022-11-13T09:32:02;14.40;;;9.80;;
68944;SDS011;55984;48.790;8.990;2022-11-13T09:34:28;16.50;;;10.87;;
68944;SDS011;55984;48.790;8.990;2022-11-13T09:36:53;15.40;;;10.33;;
68944;SDS011;55984;48.790;8.990;2022-11-13T09:39:19;16.47;;;10.33;;
68944;SDS011;55984;48.790;8.990;2022-11-13T09:41:52;13.73;;;9.63;;
68944;SDS011;55984;48.790;8.990;2022-11-13T09:44:29;12.40;;;8.70;;
68944;SDS011;55984;48.790;8.990;2022-11-13T09:47:01;13.30;;;8.60;;
68944;SDS011;55984;48.790;8.990;2022-11-13T09:49:41;15.30;;;10.20;;
68944;SDS011;55984;48.790;8.990;2022-11-13T09:52:20;14.43;;;9.50;;
68944;SDS011;55984;48.790;8.990;2022-11-13T09:54:51;13.17;;;9.03;;
68944;SDS011;55984;48.790;8.990;2022-11-13T10:00:02;13.33;;;9.00;;
68944;SDS011;55984;48.790;8.990;2022-11-13T10:02:42;13.50;;;8.50;;
68944;SDS011;55984;48.790;8.990;2022-11-13T10:08:46;12.00;;;8.00;;
68944;SDS011;55984;48.790;8.990;2022-11-13T10:13:51;12.20;;;8.57;;
68944;SDS011;55984;48.790;8.990;2022-11-13T10:22:11;13.00;;;8.87;;
68944;SDS011;55984;48.790;8.990;2022-11-13T10:24:40;12.60;;;8.03;;
68944;SDS011;55984;48.790;8.990;2022-11-13T10:27:08;12.87;;;8.40;;
68944;SDS011;55984;48.790;8.990;2022-11-13T10:29:38;12.67;;;8.23;;
68944;SDS011;55984;48.790;8.990;2022-11-13T10:32:25;11.20;;;8.10;;
68944;SDS011;55984;48.790;8.990;2022-11-13T10:35:08;12.67;;;8.87;;
68944;SDS011;55984;48.790;8.990;2022-11-13T10:40:33;13.70;;;9.50;;
68944;SDS011;55984;48.790;8.990;2022-11-13T10:43:23;12.23;;;8.57;;
68944;SDS011;55984;48.790;8.990;2022-11-13T10:45:55;14.27;;;9.33;;
68944;SDS011;55984;48.790;8.990;2022-11-13T10:48:36;11.87;;;8.30;;
68944;SDS011;55984;48.790;8.990;2022-11-13T10:51:14;11.00;;;8.20;;
68944;SDS011;55984;48.790;8.990;2022-11-13T10:53:46;11.70;;;8.63;;
68944;SDS011;55984;48.790;8.990;2022-11-13T10:56:20;10.80;;;8.20;;
68944;SDS011;55984;48.790;8.990;2022-11-13T11:01:45;13.07;;;8.17;;
68944;SDS011;55984;48.790;8.990;2022-11-13T11:04:13;11.10;;;7.87;;
68944;SDS011;55984;48.790;8.990;2022-11-13T11:06:44;12.20;;;8.30;;
68944;SDS011;55984;48.790;8.990;2022-11-13T11:09:17;11.60;;;8.30;;
68944;SDS011;55984;48.790;8.990;2022-11-13T11:11:57;13.07;;;8.80;;
68944;SDS011;55984;48.790;8.990;2022-11-13T11:23:01;11.23;;;7.70;;
68944;SDS011;55984;48.790;8.990;2022-11-13T11:25:59;10.40;;;8.00;;
68944;SDS011;55984;48.790;8.990;2022-11-13T11:31:17;10.93;;;8.10;;
68944;SDS011;55984;48.790;8.990;2022-11-13T11:36:30;11.03;;;8.10;;
68944;SDS011;55984;48.790;8.990;2022-11-13T11:41:45;11.07;;;8.07;;
68944;SDS011;55984;48.790;8.990;2022-11-13T11:44:24;10.50;;;8.00;;
68944;SDS011;55984;48.790;8.990;2022-11-13T11:47:20;11.57;;;7.80;;
68944;SDS011;55984;48.790;8.990;2022-11-13T11:49:45;10.83;;;7.97;;
68944;SDS011;55984;48.790;8.990;2022-11-13T11:58:21;11.60;;;8.37;;
68944;SDS011;55984;48.790;8.990;2022-11-13T12:00:59;10.40;;;7.90;;
68944;SDS011;55984;48.790;8.990;2022-11-13T12:06:26;11.97;;;8.07;;
68944;SDS011;55984;48.790;8.990;2022-11-13T12:09:09;9.80;;;7.70;;
68944;SDS011;55984;48.790;8.990;2022-11-13T12:11:38;11.77;;;8.50;;
68944;SDS011;55984;48.790;8.990;2022-11-13T12:19:44;11.80;;;7.90;;
68944;SDS011;55984;48.790;8.990;2022-11-13T12:22:31;10.90;;;8.13;;
68944;SDS011;55984;48.790;8.990;2022-11-13T12:27:53;10.70;;;7.80;;
68944;SDS011;55984;48.790;8.990;2022-11-13T12:36:02;10.93;;;7.63;;
68944;SDS011;55984;48.790;8.990;2022-11-13T12:38:48;11.30;;;8.10;;
68944;SDS011;55984;48.790;8.990;2022-11-13T12:44:35;13.10;;;7.80;;
68944;SDS011;55984;48.790;8.990;2022-11-13T12:46:49;13.50;;;8.83;;
68944;SDS011;55984;48.790;8.990;2022-11-13T12:52:03;13.83;;;8.60;;
68944;SDS011;55984;48.790;8.990;2022-11-13T12:54:40;10.37;;;7.37;;
68944;SDS011;55984;48.790;8.990;2022-11-13T12:59:56;11.90;;;8.10;;
68944;SDS011;55984;48.790;8.990;2022-11-13T13:02:46;10.60;;;7.50;;
68944;SDS011;55984;48.790;8.990;2022-11-13T13:05:20;11.80;;;7.60;;
68944;SDS011;55984;48.790;8.990;2022-11-13T13:10:45;11.80;;;8.20;;
68944;SDS011;55984;48.790;8.990;2022-11-13T13:13:23;11.57;;;7.70;;
68944;SDS011;55984;48.790;8.990;2022-11-13T13:16:02;10.73;;;7.33;;
68944;SDS011;55984;48.790;8.990;2022-11-13T13:18:33;10.17;;;7.10;;
68944;SDS011;55984;48.790;8.990;2022-11-13T13:23:40;10.93;;;7.27;;
68944;SDS011;55984;48.790;8.990;2022-11-13T13:26:20;12.97;;;7.60;;
68944;SDS011;55984;48.790;8.990;2022-11-13T13:31:41;10.73;;;7.50;;
68944;SDS011;55984;48.790;8.990;2022-11-13T13:36:44;9.77;;;7.30;;
68944;SDS011;55984;48.790;8.990;2022-11-13T13:39:25;11.47;;;7.20;;
68944;SDS011;55984;48.790;8.990;2022-11-13T13:47:31;8.20;;;6.40;;
68944;SDS011;55984;48.790;8.990;2022-11-13T13:49:59;10.57;;;7.50;;
68944;SDS011;55984;48.790;8.990;2022-11-13T13:52:29;9.73;;;7.10;;
68944;SDS011;55984;48.790;8.990;2022-11-13T13:54:57;11.10;;;7.33;;
68944;SDS011;55984;48.790;8.990;2022-11-13T13:57:27;10.50;;;6.90;;
68944;SDS011;55984;48.790;8.990;2022-11-13T13:59:54;14.03;;;7.37;;
68944;SDS011;55984;48.790;8.990;2022-11-13T14:02:21;9.50;;;6.93;;
68944;SDS011;55984;48.790;8.990;2022-11-13T14:04:48;9.90;;;6.60;;
68944;SDS011;55984;48.790;8.990;2022-11-13T14:07:17;9.13;;;6.53;;
68944;SDS011;55984;48.790;8.990;2022-11-13T14:09:45;9.77;;;6.40;;
68944;SDS011;55984;48.790;8.990;2022-11-13T14:12:18;11.60;;;7.20;;
68944;SDS011;55984;48.790;8.990;2022-11-13T14:14:46;10.30;;;6.73;;
68944;SDS011;55984;48.790;8.990;2022-11-13T14:17:19;11.07;;;7.80;;
68944;SDS011;55984;48.790;8.990;2022-11-13T14:19:50;13.10;;;8.07;;
68944;SDS011;55984;48.790;8.990;2022-11-13T14:22:17;14.20;;;8.63;;
68944;SDS011;55984;48.790;8.990;2022-11-13T14:24:48;11.60;;;8.13;;
68944;SDS011;55984;48.790;8.990;2022-11-13T14:27:18;11.40;;;8.20;;
68944;SDS011;55984;48.790;8.990;2022-11-13T14:29:47;12.40;;;8.50;;
68944;SDS011;55984;48.790;8.990;2022-11-13T14:32:20;16.70;;;8.67;;
68944;SDS011;55984;48.790;8.990;2022-11-13T14:34:49;13.33;;;8.43;;
68944;SDS011;55984;48.790;8.990;2022-11-13T14:39:42;16.30;;;9.60;;
68944;SDS011;55984;48.790;8.990;2022-11-13T14:42:15;14.37;;;9.70;;
68944;SDS011;55984;48.790;8.990;2022-11-13T14:44:43;13.00;;;9.20;;
68944;SDS011;55984;48.790;8.990;2022-11-13T14:47:42;11.40;;;8.20;;
68944;SDS011;55984;48.790;8.990;2022-11-13T14:50:35;12.20;;;8.70;;
68944;SDS011;55984;48.790;8.990;2022-11-13T14:52:55;11.60;;;7.77;;
68944;SDS011;55984;48.790;8.990;2022-11-13T14:55:26;11.60;;;7.97;;
68944;SDS011;55984;48.790;8.990;2022-11-13T14:57:54;12.57;;;9.03;;
68944;SDS011;55984;48.790;8.990;2022-11-13T15:00:33;12.73;;;8.83;;
68944;SDS011;55984;48.790;8.990;2022-11-13T15:03:01;11.50;;;8.30;;
68944;SDS011;55984;48.790;8.990;2022-11-13T15:05:28;11.77;;;8.23;;
68944;SDS011;55984;48.790;8.990;2022-11-13T15:07:53;13.10;;;8.83;;
68944;SDS011;55984;48.790;8.990;2022-11-13T15:10:29;12.17;;;8.20;;
68944;SDS011;55984;48.790;8.990;2022-11-13T15:12:55;11.97;;;7.87;;
68944;SDS011;55984;48.790;8.990;2022-11-13T15:15:23;15.17;;;9.23;;
68944;SDS011;55984;48.790;8.990;2022-11-13T15:17:52;15.37;;;10.10;;
68944;SDS011;55984;48.790;8.990;2022-11-13T15:20:24;13.90;;;8.30;;
68944;SDS011;55984;48.790;8.990;2022-11-13T15:22:51;12.30;;;8.83;;
68944;SDS011;55984;48.790;8.990;2022-11-13T15:25:19;15.97;;;9.00;;
68944;SDS011;55984;48.790;8.990;2022-11-13T15:27:47;18.40;;;10.40;;
68944;SDS011;55984;48.790;8.990;2022-11-13T15:30:13;16.90;;;9.27;;
68944;SDS011;55984;48.790;8.990;2022-11-13T15:32:39;14.60;;;9.30;;
68944;SDS011;55984;48.790;8.990;2022-11-13T15:35:05;18.13;;;10.63;;
68944;SDS011;55984;48.790;8.990;2022-11-13T15:37:36;17.33;;;9.90;;
68944;SDS011;55984;48.790;8.990;2022-11-13T15:40:02;23.60;;;11.07;;
68944;SDS011;55984;48.790;8.990;2022-11-13T15:42:30;23.07;;;12.33;;
68944;SDS011;55984;48.790;8.990;2022-11-13T15:44:58;22.97;;;12.20;;
68944;SDS011;55984;48.790;8.990;2022-11-13T15:47:28;18.93;;;11.20;;
68944;SDS011;55984;48.790;8.990;2022-11-13T15:49:56;21.30;;;11.90;;
68944;SDS011;55984;48.790;8.990;2022-11-13T15:52:21;22.50;;;12.30;;
68944;SDS011;55984;48.790;8.990;2022-11-13T15:54:49;20.20;;;11.87;;
68944;SDS011;55984;48.790;8.990;2022-11-13T15:57:22;20.20;;;12.30;;
68944;SDS011;55984;48.790;8.990;2022-11-13T15:59:51;24.33;;;12.33;;